Time;durP1;ratioP1;P1;durP2;ratioP2;P2;SDS_P1;SDS_P2;PMS_P1;PMS_P2;Temp;Humidity;BMP_temperature;BMP_pressure;BME280_temperature;BME280_humidity;BME280_pressure;Samples;Min_cycle;Max_cycle;Signal;HPM_P1;HPM_P2
2021/06/10 00:00:37;;;;;;;2.35;1.48;;;;;;;6.63;73.61;100373.78;3583865;40;20298;-52
2021/06/10 00:03:05;;;;;;;2.83;1.63;;;;;;;6.61;72.63;100369.63;3587239;40;20084;-58
2021/06/10 00:05:33;;;;;;;3.13;1.88;;;;;;;6.57;74.48;100368.94;3587569;40;20403;-53
2021/06/10 00:08:01;;;;;;;3.10;1.48;;;;;;;6.56;73.91;100374.22;3592862;40;20076;-49
2021/06/10 00:10:30;;;;;;;1.98;1.25;;;;;;;6.53;73.89;100371.78;3596700;40;20060;-57
2021/06/10 00:12:58;;;;;;;2.65;1.67;;;;;;;6.51;73.50;100379.66;3596505;40;20051;-54
2021/06/10 00:15:27;;;;;;;2.97;1.50;;;;;;;6.50;73.38;100377.13;3587736;40;20048;-57
2021/06/10 00:17:56;;;;;;;2.85;1.35;;;;;;;6.46;74.39;100375.59;3587225;40;21056;-57
2021/06/10 00:20:25;;;;;;;2.55;1.65;;;;;;;6.47;72.51;100375.53;3587664;40;20063;-52
2021/06/10 00:22:55;;;;;;;5.15;1.52;;;;;;;6.45;74.57;100379.13;3588028;40;20433;-55
2021/06/10 00:25:24;;;;;;;3.42;1.60;;;;;;;6.40;74.74;100382.81;3587307;40;20688;-56
2021/06/10 00:27:51;;;;;;;2.53;1.40;;;;;;;6.35;75.79;100374.41;3578257;40;20048;-54
2021/06/10 00:30:19;;;;;;;3.05;1.45;;;;;;;6.30;74.88;100375.56;3578105;40;20203;-52
2021/06/10 00:32:49;;;;;;;1.95;1.38;;;;;;;6.30;73.85;100383.38;3587518;40;20546;-56
2021/06/10 00:35:19;;;;;;;2.55;1.48;;;;;;;6.28;74.25;100380.84;3587541;40;20419;-58
2021/06/10 00:37:47;;;;;;;2.17;1.20;;;;;;;6.27;74.02;100383.53;3587382;40;20134;-54
2021/06/10 00:40:16;;;;;;;2.08;1.00;;;;;;;6.24;73.30;100376.75;3587296;40;20064;-58
2021/06/10 00:42:43;;;;;;;2.78;1.60;;;;;;;6.24;73.13;100379.34;3587358;40;20088;-55
2021/06/10 00:45:14;;;;;;;4.40;1.40;;;;;;;6.24;72.64;100384.53;3587718;40;20064;-56
2021/06/10 00:47:43;;;;;;;2.20;1.30;;;;;;;6.23;72.83;100379.44;3585591;40;20048;-53
2021/06/10 00:50:11;;;;;;;2.80;1.33;;;;;;;6.22;73.98;100382.91;3587583;40;20060;-56
2021/06/10 00:52:39;;;;;;;2.25;1.42;;;;;;;6.21;73.10;100384.69;3587428;40;20507;-51
2021/06/10 00:55:08;;;;;;;2.67;1.45;;;;;;;6.20;74.52;100385.59;3596364;40;20407;-57
2021/06/10 00:57:36;;;;;;;5.88;2.75;;;;;;;6.18;74.49;100384.03;3594050;40;20048;-55
2021/06/10 01:00:09;;;;;;;20.60;9.48;;;;;;;6.18;73.89;100384.84;3587283;40;20079;-57
2021/06/10 01:02:38;;;;;;;13.85;6.65;;;;;;;6.19;72.24;100383.09;3595927;40;20411;-57
2021/06/10 01:05:07;;;;;;;7.30;3.65;;;;;;;6.19;72.79;100385.69;3596407;40;20300;-55
2021/06/10 01:07:37;;;;;;;5.25;2.45;;;;;;;6.18;73.24;100386.63;3596345;40;20435;-58
2021/06/10 01:10:26;;;;;;;4.88;1.88;;;;;;;6.20;74.82;100392.56;3594802;40;20307;-57
2021/06/10 01:13:32;;;;;;;3.25;1.67;;;;;;;6.18;74.56;100395.25;3595571;39;20048;-53
2021/06/10 01:16:03;;;;;;;3.08;1.75;;;;;;;6.15;73.48;100401.41;3576490;40;20414;-54
2021/06/10 01:18:31;;;;;;;3.30;1.77;;;;;;;6.14;73.04;100397.16;3596449;40;20048;-57
2021/06/10 01:21:00;;;;;;;4.40;1.55;;;;;;;6.13;73.89;100392.03;3595877;40;20411;-56
2021/06/10 01:24:00;;;;;;;3.50;1.70;;;;;;;6.07;79.03;100394.94;3587228;40;20336;-54
2021/06/10 01:26:36;;;;;;;2.10;1.10;;;;;;;6.05;75.95;100404.56;3587380;40;20048;-55
2021/06/10 01:29:09;;;;;;;3.75;1.90;;;;;;;6.04;75.21;100408.09;3587153;40;20040;-56
2021/06/10 01:31:38;;;;;;;2.07;1.23;;;;;;;6.01;77.66;100408.22;3587379;40;20060;-56
2021/06/10 01:34:08;;;;;;;3.47;1.50;;;;;;;6.05;76.83;100409.75;3577509;40;20487;-56
2021/06/10 01:36:39;;;;;;;2.30;1.35;;;;;;;6.07;76.91;100395.78;3586930;40;20052;-55
2021/06/10 01:39:12;;;;;;;3.53;1.55;;;;;;;6.08;78.23;100400.06;3587252;40;20044;-55
2021/06/10 01:41:42;;;;;;;2.92;1.58;;;;;;;6.14;77.08;100399.75;3587135;40;20056;-56
2021/06/10 01:44:12;;;;;;;2.63;1.60;;;;;;;6.22;76.31;100398.50;3585291;40;20311;-54
2021/06/10 01:46:40;;;;;;;2.08;1.38;;;;;;;6.26;75.52;100390.47;3587193;40;20608;-56
2021/06/10 01:49:16;;;;;;;3.00;1.55;;;;;;;6.28;76.57;100398.19;3587151;40;20079;-53
2021/06/10 01:51:45;;;;;;;3.20;1.60;;;;;;;6.33;75.38;100401.41;3585226;40;20315;-57
2021/06/10 01:54:15;;;;;;;4.57;1.50;;;;;;;6.41;76.87;100397.50;3587212;40;20048;-55
2021/06/10 01:56:43;;;;;;;2.33;1.38;;;;;;;6.48;77.17;100394.56;3587051;40;20045;-55
2021/06/10 01:59:12;;;;;;;4.93;1.40;;;;;;;6.52;75.91;100398.69;3595210;40;20331;-55
2021/06/10 02:01:41;;;;;;;2.45;1.40;;;;;;;6.60;75.82;100397.34;3595714;40;20048;-55
2021/06/10 02:04:10;;;;;;;3.03;1.23;;;;;;;6.68;75.37;100396.94;3596223;40;20133;-59
2021/06/10 02:06:43;;;;;;;1.95;1.20;;;;;;;6.77;74.00;100396.44;3584704;40;20490;-55
2021/06/10 02:09:11;;;;;;;4.18;1.70;;;;;;;6.85;74.23;100402.06;3577485;40;20063;-56
2021/06/10 02:11:40;;;;;;;3.65;1.63;;;;;;;6.94;72.06;100403.34;3586616;40;20068;-58
2021/06/10 02:14:09;;;;;;;3.67;1.90;;;;;;;7.03;73.47;100402.00;3584654;40;20045;-57
2021/06/10 02:16:40;;;;;;;2.28;1.33;;;;;;;7.12;75.77;100393.66;3586993;40;20056;-56
2021/06/10 02:19:09;;;;;;;2.30;1.25;;;;;;;7.22;75.86;100392.25;3587032;40;20041;-56
2021/06/10 02:21:37;;;;;;;3.63;2.17;;;;;;;7.31;76.41;100396.94;3584930;40;20052;-54
2021/06/10 02:24:05;;;;;;;1.92;1.30;;;;;;;7.42;76.80;100393.75;3587407;40;20866;-56
2021/06/10 02:26:32;;;;;;;4.03;2.10;;;;;;;7.50;77.80;100393.28;3588478;40;20340;-57
2021/06/10 02:29:00;;;;;;;5.03;2.03;;;;;;;7.56;79.04;100393.78;3578932;40;20051;-57
2021/06/10 02:31:27;;;;;;;2.72;1.50;;;;;;;7.65;77.76;100398.47;3588330;40;20056;-57
2021/06/10 02:33:55;;;;;;;2.80;1.80;;;;;;;7.73;78.60;100400.63;3588196;40;20067;-57
2021/06/10 02:36:22;;;;;;;6.50;2.20;;;;;;;7.84;79.65;100393.03;3587879;40;20443;-56
2021/06/10 02:38:53;;;;;;;4.53;2.08;;;;;;;7.93;79.70;100402.91;3588472;40;20052;-56
2021/06/10 02:41:25;;;;;;;2.72;1.55;;;;;;;8.05;76.92;100392.69;3588039;40;20133;-58
2021/06/10 02:43:53;;;;;;;3.33;1.92;;;;;;;8.18;75.75;100404.06;3588187;40;20099;-57
2021/06/10 02:46:21;;;;;;;4.63;1.90;;;;;;;8.27;76.15;100400.91;3587900;40;20049;-58
2021/06/10 02:48:52;;;;;;;3.50;2.15;;;;;;;8.40;76.13;100393.22;3588156;40;20052;-56
2021/06/10 02:51:20;;;;;;;2.60;1.50;;;;;;;8.50;79.21;100402.19;3588124;40;20354;-58
2021/06/10 02:53:49;;;;;;;2.47;1.20;;;;;;;8.63;77.01;100402.25;3587854;40;20053;-57
2021/06/10 02:56:18;;;;;;;3.13;1.60;;;;;;;8.75;78.70;100392.84;3588238;40;20041;-57
2021/06/10 02:58:48;;;;;;;3.13;2.00;;;;;;;8.87;78.33;100395.50;3594942;40;20337;-57
2021/06/10 03:01:17;;;;;;;2.22;1.10;;;;;;;8.98;77.15;100395.69;3587283;40;20052;-58
2021/06/10 03:03:44;;;;;;;3.60;2.15;;;;;;;9.12;78.36;100393.97;3595970;40;20509;-57
2021/06/10 03:06:12;;;;;;;3.28;1.40;;;;;;;9.26;78.25;100396.56;3597080;40;20060;-58
2021/06/10 03:08:40;;;;;;;2.78;1.48;;;;;;;9.39;78.71;100402.63;3596973;40;20052;-58
2021/06/10 03:11:08;;;;;;;3.38;2.10;;;;;;;9.55;77.67;100396.44;3596874;40;20088;-57
2021/06/10 03:13:38;;;;;;;2.03;1.33;;;;;;;9.69;77.40;100394.59;3597507;40;20051;-57
2021/06/10 03:16:06;;;;;;;2.38;1.40;;;;;;;9.85;78.04;100404.84;3597204;40;20323;-56
2021/06/10 03:18:35;;;;;;;3.58;1.50;;;;;;;10.02;77.83;100406.34;3596622;40;20052;-56
2021/06/10 03:21:04;;;;;;;2.35;1.50;;;;;;;10.16;75.80;100395.81;3596993;40;20040;-56
2021/06/10 03:23:32;;;;;;;8.27;2.22;;;;;;;10.34;72.97;100395.50;3596999;40;20044;-57
2021/06/10 03:26:00;;;;;;;3.45;1.85;;;;;;;10.52;72.44;100394.25;3592561;40;20063;-55
2021/06/10 03:28:29;;;;;;;3.38;2.00;;;;;;;10.71;73.65;100399.03;3586142;40;20092;-57
2021/06/10 03:30:56;;;;;;;3.28;1.83;;;;;;;10.89;72.70;100392.50;3587972;40;20065;-56
2021/06/10 03:33:25;;;;;;;4.70;1.88;;;;;;;11.10;71.70;100392.72;3587792;40;20048;-56
2021/06/10 03:35:54;;;;;;;4.95;1.75;;;;;;;11.32;70.95;100393.81;3595875;39;20071;-57
2021/06/10 03:38:24;;;;;;;3.72;1.70;;;;;;;11.50;69.67;100392.47;3596766;40;20413;-57
2021/06/10 03:40:55;;;;;;;2.70;1.55;;;;;;;11.70;70.36;100389.19;3597045;40;20036;-57
2021/06/10 03:43:22;;;;;;;2.80;1.70;;;;;;;11.89;68.65;100393.09;3596441;40;20063;-55
2021/06/10 03:45:51;;;;;;;5.00;2.25;;;;;;;12.09;68.42;100383.72;3596609;40;20090;-58
2021/06/10 03:48:21;;;;;;;40.75;17.85;;;;;;;12.28;67.90;100387.44;3597190;40;20047;-56
2021/06/10 03:50:48;;;;;;;9.77;4.22;;;;;;;12.45;66.84;100380.91;3591557;40;20076;-58
2021/06/10 03:53:16;;;;;;;3.60;1.50;;;;;;;12.64;66.92;100382.09;3592047;40;20044;-55
2021/06/10 03:55:43;;;;;;;2.38;1.50;;;;;;;12.86;67.44;100382.06;3589154;40;20060;-58
2021/06/10 03:58:10;;;;;;;3.40;1.38;;;;;;;13.03;66.13;100388.59;3576277;40;20057;-58
2021/06/10 04:00:37;;;;;;;4.38;2.03;;;;;;;13.23;66.07;100385.22;3591186;40;20048;-60
2021/06/10 04:03:05;;;;;;;2.40;1.38;;;;;;;13.41;66.05;100387.34;3596571;40;20052;-56
2021/06/10 04:05:34;;;;;;;2.67;1.75;;;;;;;13.62;64.93;100382.94;3586884;40;20052;-57
2021/06/10 04:08:02;;;;;;;3.78;1.55;;;;;;;13.81;63.91;100387.50;3596733;40;20083;-58
2021/06/10 04:10:29;;;;;;;40.05;20.45;;;;;;;14.00;63.91;100390.25;3596891;40;20332;-50
2021/06/10 04:12:56;;;;;;;79.68;37.97;;;;;;;14.19;62.74;100380.81;3592220;40;20087;-54
2021/06/10 04:15:24;;;;;;;18.02;8.50;;;;;;;14.34;62.80;100382.97;3587543;40;20130;-55
2021/06/10 04:17:51;;;;;;;6.60;3.22;;;;;;;14.50;62.79;100379.06;3587574;40;20060;-55
2021/06/10 04:20:20;;;;;;;4.95;2.20;;;;;;;14.66;61.79;100379.38;3587805;40;20157;-57
2021/06/10 04:22:47;;;;;;;4.57;1.60;;;;;;;14.82;61.11;100374.47;3587461;40;20407;-54
2021/06/10 04:25:15;;;;;;;6.38;1.83;;;;;;;14.96;61.01;100380.31;3585378;40;20052;-56
2021/06/10 04:27:42;;;;;;;2.15;1.40;;;;;;;15.08;60.56;100385.31;3587651;40;20070;-53
2021/06/10 04:30:12;;;;;;;2.75;1.60;;;;;;;15.22;60.59;100378.00;3578392;40;20040;-51
2021/06/10 04:32:41;;;;;;;3.03;1.83;;;;;;;15.35;60.71;100381.19;3587640;40;20067;-56
2021/06/10 04:35:09;;;;;;;107.45;55.67;;;;;;;15.59;59.57;100378.97;3587715;40;20395;-58
2021/06/10 04:37:37;;;;;;;25.92;15.25;;;;;;;15.74;58.98;100378.59;3587859;40;20056;-53
2021/06/10 04:40:06;;;;;;;11.55;5.78;;;;;;;15.84;58.76;100384.66;3587392;40;20064;-54
2021/06/10 04:42:34;;;;;;;5.70;2.63;;;;;;;15.94;58.56;100382.03;3585433;40;20049;-57
2021/06/10 04:45:02;;;;;;;4.47;2.15;;;;;;;16.05;58.95;100380.06;3587451;40;20071;-52
2021/06/10 04:47:29;;;;;;;3.80;1.55;;;;;;;16.17;58.67;100379.88;3586891;40;20064;-54
2021/06/10 04:49:57;;;;;;;2.88;1.52;;;;;;;16.27;58.94;100376.22;3589805;40;20074;-52
2021/06/10 04:52:24;;;;;;;3.70;1.65;;;;;;;16.40;58.60;100381.19;3587303;40;20060;-54
2021/06/10 04:54:51;;;;;;;3.95;1.80;;;;;;;16.51;57.83;100381.00;3587287;40;20062;-56
2021/06/10 04:57:19;;;;;;;90.25;50.13;;;;;;;16.64;57.27;100376.22;3587668;40;20129;-57
2021/06/10 04:59:46;;;;;;;126.18;61.38;;;;;;;16.81;56.49;100379.94;3587476;40;20044;-53
2021/06/10 05:02:14;;;;;;;170.48;78.22;;;;;;;16.92;57.13;100376.25;3587447;40;20054;-52
2021/06/10 05:04:41;;;;;;;27.73;13.70;;;;;;;17.06;56.69;100381.03;3587352;40;20040;-54
2021/06/10 05:07:12;;;;;;;7.72;3.75;;;;;;;17.19;56.55;100383.34;3576580;40;20041;-56
2021/06/10 05:09:39;;;;;;;5.07;1.85;;;;;;;17.33;56.14;100381.97;3587471;40;20064;-56
2021/06/10 05:12:07;;;;;;;4.95;1.52;;;;;;;17.43;55.30;100382.72;3587637;40;20064;-51
2021/06/10 05:14:35;;;;;;;4.30;1.30;;;;;;;17.58;54.41;100377.72;3587293;40;20071;-53
2021/06/10 05:17:03;;;;;;;3.85;1.50;;;;;;;17.71;54.66;100378.19;3595896;40;20056;-51
2021/06/10 05:19:31;;;;;;;4.18;1.63;;;;;;;17.85;53.98;100384.75;3596167;40;20070;-54
2021/06/10 05:21:58;;;;;;;3.33;1.60;;;;;;;18.03;54.77;100380.25;3596334;40;20503;-53
2021/06/10 05:24:27;;;;;;;2.33;1.33;;;;;;;18.16;53.45;100377.19;3596181;40;20055;-53
2021/06/10 05:26:56;;;;;;;2.50;1.48;;;;;;;18.30;52.61;100378.44;3585253;40;20382;-51
2021/06/10 05:29:23;;;;;;;4.68;1.60;;;;;;;18.39;51.31;100375.66;3587222;40;20077;-51
2021/06/10 05:31:51;;;;;;;5.57;1.77;;;;;;;18.54;54.34;100380.38;3587238;40;20751;-51
2021/06/10 05:34:19;;;;;;;2.28;1.30;;;;;;;18.72;48.77;100380.31;3595686;40;20050;-54
2021/06/10 05:36:46;;;;;;;3.22;1.30;;;;;;;18.90;45.61;100375.75;3596129;40;20059;-53
2021/06/10 05:39:14;;;;;;;3.28;1.13;;;;;;;19.05;44.21;100374.13;3596073;40;20334;-54
2021/06/10 05:41:41;;;;;;;2.83;1.25;;;;;;;19.15;38.11;100384.59;3596359;40;20052;-51
2021/06/10 05:44:10;;;;;;;2.78;1.30;;;;;;;19.24;39.11;100378.31;3587193;40;20048;-56
2021/06/10 05:46:41;;;;;;;3.05;1.23;;;;;;;19.38;40.71;100382.97;3587123;40;20158;-57
2021/06/10 05:49:08;;;;;;;1.90;1.13;;;;;;;19.51;38.86;100382.47;3590457;40;20071;-54
2021/06/10 05:51:36;;;;;;;3.78;1.13;;;;;;;19.62;41.70;100376.88;3595609;40;20239;-48
2021/06/10 05:54:03;;;;;;;2.58;1.17;;;;;;;19.76;38.53;100382.50;3596154;40;20052;-55
2021/06/10 05:56:30;;;;;;;3.40;1.13;;;;;;;19.85;40.33;100376.22;3595150;40;20310;-57
2021/06/10 05:58:58;;;;;;;3.40;1.20;;;;;;;19.94;41.87;100376.03;3595886;40;20120;-51
2021/06/10 06:01:25;;;;;;;3.08;1.20;;;;;;;20.06;40.74;100371.19;3586885;40;20382;-50
2021/06/10 06:03:52;;;;;;;4.13;1.35;;;;;;;20.17;41.06;100376.13;3586747;40;20040;-53
2021/06/10 06:06:20;;;;;;;4.28;0.98;;;;;;;20.25;35.92;100375.28;3587211;40;20045;-52
2021/06/10 06:08:48;;;;;;;2.13;1.02;;;;;;;20.32;37.73;100375.44;3586898;40;20052;-55
2021/06/10 06:11:16;;;;;;;136.93;103.60;;;;;;;20.38;33.37;100372.94;3584860;40;20060;-53
2021/06/10 06:13:54;;;;;;;258.48;155.15;;;;;;;20.48;37.65;100378.09;3586732;40;20056;-46
2021/06/10 06:16:22;;;;;;;19.98;11.38;;;;;;;20.55;35.97;100372.91;3586692;40;20044;-54
2021/06/10 06:18:50;;;;;;;6.35;2.05;;;;;;;20.62;37.97;100371.22;3587278;40;20044;-52
2021/06/10 06:21:18;;;;;;;2.25;1.10;;;;;;;20.75;36.78;100378.63;3587042;40;20059;-54
2021/06/10 06:23:45;;;;;;;3.67;0.98;;;;;;;20.72;31.55;100377.16;3587036;40;20041;-49
2021/06/10 06:26:12;;;;;;;4.00;1.00;;;;;;;20.82;36.93;100380.44;3595478;40;20048;-53
2021/06/10 06:28:40;;;;;;;2.47;1.13;;;;;;;20.90;36.56;100385.72;3596013;40;20047;-54
2021/06/10 06:31:09;;;;;;;12.23;1.23;;;;;;;21.01;37.74;100379.16;3595678;40;20060;-55
2021/06/10 06:33:37;;;;;;;3.38;1.30;;;;;;;21.11;33.83;100374.44;3595053;40;20085;-60
2021/06/10 06:36:05;;;;;;;3.53;1.05;;;;;;;21.10;34.50;100380.78;3587175;40;20056;-52
2021/06/10 06:38:34;;;;;;;4.50;1.40;;;;;;;21.16;32.38;100384.56;3594119;40;20063;-53
2021/06/10 06:41:05;;;;;;;2.67;1.23;;;;;;;21.16;32.75;100385.38;3595036;40;20033;-49
2021/06/10 06:43:34;;;;;;;4.70;0.95;;;;;;;21.14;30.19;100382.09;3595500;40;20129;-53
2021/06/10 06:46:09;;;;;;;2.50;1.48;;;;;;;21.29;34.60;100390.13;3595010;40;20144;-51
2021/06/10 06:48:39;;;;;;;4.60;1.10;;;;;;;21.37;32.41;100387.47;3593742;40;20048;-54
2021/06/10 06:51:07;;;;;;;3.00;1.15;;;;;;;21.43;33.72;100392.06;3586267;40;20053;-53
2021/06/10 06:53:35;;;;;;;2.35;1.15;;;;;;;21.53;34.75;100397.16;3586641;40;20051;-52
2021/06/10 06:56:20;;;;;;;55.45;38.58;;;;;;;21.50;32.33;100389.50;3585770;40;20045;-55
2021/06/10 06:58:47;;;;;;;3.90;2.00;;;;;;;21.57;33.42;100392.31;3586388;40;20068;-50
2021/06/10 07:01:14;;;;;;;2.58;1.13;;;;;;;21.68;34.97;100384.72;3586409;40;20134;-53
2021/06/10 07:03:42;;;;;;;4.68;1.08;;;;;;;21.61;33.41;100393.59;3584229;40;20046;-55
2021/06/10 07:06:09;;;;;;;2.80;1.38;;;;;;;21.68;32.56;100392.69;3585985;40;20056;-56
2021/06/10 07:08:37;;;;;;;2.88;1.15;;;;;;;21.75;34.08;100387.50;3585913;40;20633;-56
2021/06/10 07:11:04;;;;;;;5.28;1.15;;;;;;;21.82;32.95;100388.41;3586801;40;20340;-54
2021/06/10 07:13:32;;;;;;;4.53;1.20;;;;;;;21.95;32.22;100390.47;3587889;40;20076;-51
2021/06/10 07:15:59;;;;;;;3.55;1.27;;;;;;;21.95;30.66;100390.47;3587658;40;20114;-50
2021/06/10 07:18:27;;;;;;;2.75;0.90;;;;;;;21.93;31.75;100390.66;3587317;40;20404;-55
2021/06/10 07:20:55;;;;;;;3.67;0.93;;;;;;;22.05;30.06;100390.22;3587520;40;20047;-52
2021/06/10 07:23:22;;;;;;;1.98;0.90;;;;;;;22.17;27.64;100378.97;3596636;40;20052;-56
2021/06/10 07:25:51;;;;;;;2.83;1.17;;;;;;;22.33;31.08;100385.13;3596698;40;20052;-52
2021/06/10 07:28:19;;;;;;;6.40;1.98;;;;;;;22.44;32.26;100387.31;3596121;40;20055;-53
2021/06/10 07:30:48;;;;;;;2.55;1.05;;;;;;;22.39;30.17;100389.72;3585750;40;20068;-51
2021/06/10 07:33:16;;;;;;;3.33;0.90;;;;;;;22.48;32.95;100397.44;3587849;40;20177;-47
2021/06/10 07:35:43;;;;;;;2.92;1.10;;;;;;;22.47;28.72;100386.97;3587234;40;20407;-55
2021/06/10 07:38:11;;;;;;;3.28;0.82;;;;;;;22.50;29.08;100383.91;3587441;40;20052;-51
2021/06/10 07:40:40;;;;;;;1.58;0.80;;;;;;;22.54;28.75;100379.03;3587912;40;20373;-51
2021/06/10 07:43:08;;;;;;;2.45;1.08;;;;;;;22.68;30.07;100373.69;3587920;40;20059;-52
2021/06/10 07:45:36;;;;;;;4.82;1.75;;;;;;;22.78;29.89;100381.41;3587369;40;20078;-53
2021/06/10 07:48:04;;;;;;;3.10;1.20;;;;;;;22.80;30.21;100379.38;3585288;40;20117;-55
2021/06/10 07:50:32;;;;;;;4.05;1.13;;;;;;;22.79;29.79;100380.41;3595752;40;20540;-52
2021/06/10 07:52:59;;;;;;;1.70;0.95;;;;;;;22.82;28.40;100381.84;3596571;40;20056;-49
2021/06/10 07:55:27;;;;;;;1.58;0.90;;;;;;;22.76;30.93;100386.09;3596310;40;20337;-52
2021/06/10 07:57:55;;;;;;;4.97;1.33;;;;;;;22.85;29.79;100385.00;3596667;40;20080;-54
2021/06/10 08:00:23;;;;;;;1.42;0.80;;;;;;;22.80;28.36;100381.22;3594670;40;20056;-54
2021/06/10 08:02:57;;;;;;;140.90;75.05;;;;;;;22.94;29.19;100373.22;3596721;40;20403;-53
2021/06/10 08:05:25;;;;;;;35.63;19.35;;;;;;;23.07;30.32;100369.84;3596826;40;20048;-50
2021/06/10 08:07:54;;;;;;;6.20;2.53;;;;;;;23.23;31.72;100371.47;3596607;40;20046;-52
2021/06/10 08:10:23;;;;;;;3.17;1.00;;;;;;;23.29;29.12;100372.56;3596470;40;20076;-52
2021/06/10 08:12:50;;;;;;;2.63;0.95;;;;;;;23.20;28.25;100369.19;3592445;40;20136;-53
2021/06/10 08:15:19;;;;;;;2.42;1.15;;;;;;;23.38;29.89;100366.09;3596651;40;20449;-48
2021/06/10 08:17:47;;;;;;;2.88;1.08;;;;;;;23.45;31.24;100364.28;3591851;40;20072;-54
2021/06/10 08:20:18;;;;;;;2.45;1.42;;;;;;;23.43;32.73;100369.81;3595959;40;20060;-54
2021/06/10 08:22:46;;;;;;;3.45;1.23;;;;;;;23.62;31.25;100368.34;3596374;40;20048;-53
2021/06/10 08:25:14;;;;;;;2.28;1.10;;;;;;;23.68;31.08;100364.94;3596323;40;20515;-54
2021/06/10 08:27:41;;;;;;;2.95;1.27;;;;;;;23.67;30.17;100367.81;3596194;40;20084;-49
2021/06/10 08:30:10;;;;;;;4.63;1.10;;;;;;;23.91;29.66;100374.56;3587583;40;20060;-52
2021/06/10 08:32:38;;;;;;;3.65;1.10;;;;;;;24.10;30.06;100365.84;3587314;40;20049;-51
2021/06/10 08:35:06;;;;;;;2.70;1.27;;;;;;;24.11;30.03;100367.50;3587474;40;20056;-46
2021/06/10 08:37:35;;;;;;;2.35;1.00;;;;;;;24.24;26.36;100367.59;3587342;40;20050;-49
2021/06/10 08:40:08;;;;;;;2.15;0.77;;;;;;;24.36;28.53;100365.25;3587409;40;20071;-52
2021/06/10 08:42:36;;;;;;;;;;;;;;;24.44;30.31;100370.41;3587844;40;20044;-56
2021/06/10 08:45:10;;;;;;;3.00;1.00;;;;;;;24.43;28.19;100371.44;3596247;40;20234;-49
2021/06/10 08:47:39;;;;;;;19.70;5.72;;;;;;;24.55;28.64;100368.22;3596541;40;20409;-50
2021/06/10 08:50:10;;;;;;;5.28;2.08;;;;;;;24.73;26.48;100363.13;3589522;40;20064;-51
2021/06/10 08:52:38;;;;;;;2.38;0.93;;;;;;;24.86;29.29;100373.06;3587754;40;20041;-48
2021/06/10 08:55:07;;;;;;;3.10;0.80;;;;;;;24.97;26.07;100367.09;3587511;40;20056;-56
2021/06/10 08:57:35;;;;;;;3.30;0.80;;;;;;;24.94;25.43;100368.34;3577917;40;20059;-57
2021/06/10 09:00:19;;;;;;;2.42;0.98;;;;;;;25.11;24.97;100365.31;3586418;40;20088;-57
2021/06/10 09:02:53;;;;;;;4.32;0.73;;;;;;;25.37;27.05;100377.94;3587440;40;20311;-55
2021/06/10 09:05:22;;;;;;;2.60;0.98;;;;;;;24.57;22.16;100371.50;3585481;40;20091;-56
2021/06/10 09:08:05;;;;;;;3.38;1.00;;;;;;;24.56;26.47;100367.19;3587431;40;20134;-52
2021/06/10 09:10:35;;;;;;;3.95;1.10;;;;;;;24.95;25.44;100367.31;3587396;40;20084;-49
2021/06/10 09:13:04;;;;;;;4.57;1.02;;;;;;;24.94;26.40;100365.69;3587389;40;20060;-56
2021/06/10 09:15:35;;;;;;;2.40;0.80;;;;;;;25.25;25.58;100364.31;3587215;40;20056;-55
2021/06/10 09:18:03;;;;;;;48.33;24.83;;;;;;;25.29;24.26;100366.38;3587459;40;20453;-56
2021/06/10 09:20:41;;;;;;;21.95;11.90;;;;;;;25.36;27.80;100362.91;3587265;40;20040;-56
2021/06/10 09:23:16;;;;;;;11.52;6.57;;;;;;;25.54;27.11;100363.13;3585257;40;20057;-51
2021/06/10 09:26:02;;;;;;;3.85;1.10;;;;;;;25.29;25.32;100355.69;3578010;40;20642;-56
2021/06/10 09:28:34;;;;;;;3.38;0.77;;;;;;;25.24;23.81;100363.50;3587025;40;20306;-50
2021/06/10 09:31:02;;;;;;;2.72;0.80;;;;;;;25.35;26.32;100354.03;3587147;40;20048;-56
2021/06/10 09:33:41;;;;;;;2.28;1.00;;;;;;;25.71;26.56;100358.19;3595584;39;20055;-52
2021/06/10 09:36:14;;;;;;;3.22;1.20;;;;;;;25.93;27.18;100358.81;3596323;40;20052;-53
2021/06/10 09:39:03;;;;;;;2.08;0.95;;;;;;;25.91;27.24;100367.06;3585463;40;20052;-51
2021/06/10 09:41:30;;;;;;;1.67;0.95;;;;;;;26.13;27.50;100356.94;3593832;40;20314;-56
2021/06/10 09:43:58;;;;;;;4.60;1.40;;;;;;;26.36;28.08;100358.31;3587441;40;20048;-54
2021/06/10 09:46:25;;;;;;;6.70;1.20;;;;;;;26.50;25.64;100350.03;3586946;40;20403;-53
2021/06/10 09:49:04;;;;;;;1.38;0.73;;;;;;;26.91;25.42;100342.63;3589494;40;20125;-50
2021/06/10 09:51:31;;;;;;;6.15;1.20;;;;;;;26.88;27.97;100335.84;3585663;40;20063;-54
2021/06/10 09:53:59;;;;;;;1.73;0.93;;;;;;;27.16;25.17;100340.88;3587265;40;20096;-54
2021/06/10 09:56:26;;;;;;;3.40;0.90;;;;;;;27.34;23.27;100345.47;3586831;40;20146;-53
2021/06/10 09:58:57;;;;;;;1.30;0.75;;;;;;;27.05;21.66;100341.50;3586587;40;20048;-57
2021/06/10 10:01:26;;;;;;;2.83;0.80;;;;;;;27.17;24.33;100337.13;3586772;40;20138;-50
2021/06/10 10:03:54;;;;;;;2.28;1.00;;;;;;;27.47;24.40;100350.75;3586748;40;20045;-54
2021/06/10 10:06:25;;;;;;;4.05;0.98;;;;;;;27.71;25.71;100350.97;3585099;40;20311;-57
2021/06/10 10:09:00;;;;;;;3.92;0.90;;;;;;;27.44;21.78;100353.03;3587062;40;20503;-52
2021/06/10 10:11:30;;;;;;;3.35;0.82;;;;;;;27.37;22.54;100342.34;3587054;40;20063;-52
2021/06/10 10:14:01;;;;;;;2.78;1.25;;;;;;;27.82;22.51;100344.88;3586916;40;20052;-54
2021/06/10 10:16:33;;;;;;;2.72;0.90;;;;;;;28.17;26.54;100349.72;3585875;40;20051;-51
2021/06/10 10:19:04;;;;;;;2.38;1.00;;;;;;;28.28;24.39;100348.97;3592955;40;20057;-57
2021/06/10 10:21:36;;;;;;;5.32;0.98;;;;;;;27.97;23.90;100340.00;3586879;40;20091;-55
2021/06/10 10:24:09;;;;;;;;;;;;;;;28.32;23.78;100342.91;3587423;40;20041;-51
2021/06/10 10:26:37;;;;;;;132.98;70.32;;;;;;;28.43;23.27;100341.38;3585170;40;20024;-55
2021/06/10 10:29:10;;;;;;;5.45;2.72;;;;;;;28.51;22.68;100330.31;3586680;40;20052;-58
2021/06/10 10:31:40;;;;;;;4.30;1.00;;;;;;;28.55;24.71;100336.06;3595242;40;20088;-50
2021/06/10 10:34:22;;;;;;;1.90;1.10;;;;;;;28.37;24.13;100331.53;3595989;40;20114;-47
2021/06/10 10:36:51;;;;;;;2.15;1.02;;;;;;;27.75;24.83;100328.00;3595639;40;20060;-51
2021/06/10 10:39:30;;;;;;;3.30;0.93;;;;;;;28.02;24.63;100337.47;3595737;40;20327;-56
2021/06/10 10:41:59;;;;;;;6.15;0.90;;;;;;;27.71;22.51;100332.16;3595143;40;20052;-56
2021/06/10 10:44:30;;;;;;;4.28;0.93;;;;;;;28.06;25.73;100327.09;3594531;39;20083;-51
2021/06/10 10:47:09;;;;;;;1.75;0.90;;;;;;;28.17;26.60;100326.34;3596748;40;20051;-53
2021/06/10 10:49:53;;;;;;;1.90;0.93;;;;;;;28.19;22.66;100335.00;3593194;40;20283;-52
2021/06/10 10:52:21;;;;;;;2.40;0.98;;;;;;;28.22;23.66;100325.66;3596875;40;20131;-50
2021/06/10 10:54:51;;;;;;;2.72;0.98;;;;;;;28.46;24.20;100321.28;3596779;40;20044;-54
2021/06/10 10:57:31;;;;;;;3.80;0.85;;;;;;;28.31;24.13;100327.00;3597164;40;20083;-45
2021/06/10 10:59:59;;;;;;;2.40;0.88;;;;;;;27.75;25.67;100323.44;3597185;40;20059;-54
2021/06/10 11:02:27;;;;;;;2.13;0.98;;;;;;;27.62;25.33;100325.41;3597159;40;20056;-51
2021/06/10 11:05:13;;;;;;;3.28;1.10;;;;;;;27.78;27.51;100323.03;3596923;40;20040;-55
2021/06/10 11:07:40;;;;;;;2.67;0.73;;;;;;;27.88;24.79;100327.06;3585760;40;20060;-51
2021/06/10 11:10:20;;;;;;;3.47;1.48;;;;;;;28.09;24.86;100329.31;3588285;40;20138;-51
2021/06/10 11:12:52;;;;;;;2.55;1.05;;;;;;;27.98;27.45;100333.56;3586825;40;20063;-54
2021/06/10 11:15:26;;;;;;;4.78;1.00;;;;;;;27.59;26.38;100324.00;3587865;40;20183;-52
2021/06/10 11:17:58;;;;;;;2.00;1.10;;;;;;;27.25;28.75;100317.22;3586443;40;20084;-52
2021/06/10 11:20:37;;;;;;;1.50;0.82;;;;;;;26.90;29.39;100314.13;3588164;40;20326;-50
2021/06/10 11:23:25;;;;;;;3.72;0.93;;;;;;;25.96;28.72;100329.72;3587844;40;20052;-47
2021/06/10 11:25:56;;;;;;;4.53;1.00;;;;;;;25.54;30.31;100322.94;3586533;40;20075;-51
2021/06/10 11:28:29;;;;;;;2.20;0.90;;;;;;;25.53;32.72;100326.66;3587931;40;20052;-53
2021/06/10 11:31:13;;;;;;;1.40;0.75;;;;;;;25.26;36.81;100321.31;3587878;40;20126;-54
2021/06/10 11:33:41;;;;;;;3.22;1.23;;;;;;;25.62;35.95;100325.41;3587569;40;20399;-55
2021/06/10 11:36:11;;;;;;;8.32;4.05;;;;;;;26.32;31.31;100312.31;3587835;40;20073;-54
2021/06/10 11:38:50;;;;;;;145.82;106.05;;;;;;;26.56;29.57;100310.81;3587810;40;20052;-53